Time;durP1;ratioP1;P1;durP2;ratioP2;P2;SDS_P1;SDS_P2;PMS_P1;PMS_P2;Temp;Humidity;BMP_temperature;BMP_pressure;BME280_temperature;BME280_humidity;BME280_pressure;Samples;Min_cycle;Max_cycle;Signal;HPM_P1;HPM_P2
2020/12/07 00:01:43;;;;;;;106.50;38.03;;;;;;;;;;5010674;28;20030;-67
2020/12/07 00:04:08;;;;;;;103.90;41.33;;;;;;;;;;5010248;28;20018;-69
2020/12/07 00:06:34;;;;;;;101.20;37.83;;;;;;;;;;5011313;28;20479;-68
2020/12/07 00:08:59;;;;;;;107.93;39.93;;;;;;;;;;5009564;28;20352;-67
2020/12/07 00:11:24;;;;;;;101.88;39.10;;;;;;;;;;5011104;28;20269;-68
2020/12/07 00:13:49;;;;;;;121.60;43.40;;;;;;;;;;5009904;28;20065;-67
2020/12/07 00:16:14;;;;;;;110.33;42.23;;;;;;;;;;5010377;28;20281;-69
2020/12/07 00:18:39;;;;;;;119.13;50.58;;;;;;;;;;5009662;28;20323;-68
2020/12/07 00:21:08;;;;;;;115.27;45.17;;;;;;;;;;5009697;28;20416;-67
2020/12/07 00:23:33;;;;;;;108.88;40.83;;;;;;;;;;5010552;28;20269;-67
2020/12/07 00:25:58;;;;;;;108.60;41.45;;;;;;;;;;5010042;28;20509;-67
2020/12/07 00:28:24;;;;;;;110.67;40.20;;;;;;;;;;5010536;28;20029;-67
2020/12/07 00:30:49;;;;;;;102.85;38.05;;;;;;;;;;5009351;28;20283;-67
2020/12/07 00:33:14;;;;;;;108.93;38.33;;;;;;;;;;5011685;28;20036;-67
2020/12/07 00:35:39;;;;;;;105.93;37.47;;;;;;;;;;5008630;28;20040;-68
2020/12/07 00:38:04;;;;;;;92.00;36.92;;;;;;;;;;5009296;28;20029;-68
2020/12/07 00:40:30;;;;;;;91.00;36.25;;;;;;;;;;5011671;28;20076;-68
2020/12/07 00:42:55;;;;;;;85.93;35.75;;;;;;;;;;5009060;28;20105;-67
2020/12/07 00:45:20;;;;;;;81.05;33.97;;;;;;;;;;5009479;28;20101;-68
2020/12/07 00:47:45;;;;;;;88.25;35.90;;;;;;;;;;5008975;28;20422;-68
2020/12/07 00:50:11;;;;;;;92.53;37.45;;;;;;;;;;5008966;28;20045;-67
2020/12/07 00:52:37;;;;;;;81.65;34.78;;;;;;;;;;5009278;28;20442;-67
2020/12/07 00:55:02;;;;;;;86.03;38.70;;;;;;;;;;5008992;28;20018;-68
2020/12/07 00:57:27;;;;;;;70.13;31.23;;;;;;;;;;5010702;28;20026;-68
2020/12/07 00:59:52;;;;;;;77.35;36.63;;;;;;;;;;5011877;28;20022;-67
2020/12/07 01:02:17;;;;;;;71.60;34.85;;;;;;;;;;5012150;28;20041;-68
2020/12/07 01:04:42;;;;;;;68.85;32.97;;;;;;;;;;5013742;28;20308;-67
2020/12/07 01:07:08;;;;;;;74.63;32.90;;;;;;;;;;5012999;28;20026;-68
2020/12/07 01:09:33;;;;;;;72.82;36.65;;;;;;;;;;5012244;28;20347;-67
2020/12/07 01:11:59;;;;;;;69.57;32.30;;;;;;;;;;5012918;28;20387;-68
2020/12/07 01:14:24;;;;;;;58.92;28.98;;;;;;;;;;5011706;28;20022;-68
2020/12/07 01:16:50;;;;;;;61.92;28.77;;;;;;;;;;5012584;28;20010;-67
2020/12/07 01:19:15;;;;;;;59.47;30.20;;;;;;;;;;5012004;28;20014;-67
2020/12/07 01:21:41;;;;;;;61.78;29.75;;;;;;;;;;5014152;28;20033;-69
2020/12/07 01:24:06;;;;;;;62.88;31.02;;;;;;;;;;5012258;28;20026;-68
2020/12/07 01:26:31;;;;;;;59.30;29.17;;;;;;;;;;5013134;28;20049;-68
2020/12/07 01:28:57;;;;;;;67.72;32.65;;;;;;;;;;5011838;28;20091;-68
2020/12/07 01:31:22;;;;;;;65.82;29.17;;;;;;;;;;5012566;28;20030;-68
2020/12/07 01:33:48;;;;;;;68.32;31.55;;;;;;;;;;5012589;28;20026;-68
2020/12/07 01:36:13;;;;;;;57.60;29.02;;;;;;;;;;5012486;28;20025;-67
2020/12/07 01:38:38;;;;;;;61.03;31.77;;;;;;;;;;5012854;28;20041;-66
2020/12/07 01:41:03;;;;;;;65.80;30.88;;;;;;;;;;5012107;28;20542;-66
2020/12/07 01:43:29;;;;;;;68.60;31.95;;;;;;;;;;5012461;28;20026;-66
2020/12/07 01:45:55;;;;;;;61.58;31.45;;;;;;;;;;5011873;28;20026;-65
2020/12/07 01:48:20;;;;;;;70.45;34.10;;;;;;;;;;5012199;28;20029;-66
2020/12/07 01:50:45;;;;;;;73.50;31.83;;;;;;;;;;5011565;28;20033;-66
2020/12/07 01:53:11;;;;;;;68.72;30.92;;;;;;;;;;5012431;28;20261;-66
2020/12/07 01:55:37;;;;;;;64.55;31.40;;;;;;;;;;5008299;28;20041;-66
2020/12/07 01:58:03;;;;;;;70.68;34.75;;;;;;;;;;5011360;28;20024;-66
2020/12/07 02:00:28;;;;;;;80.05;37.08;;;;;;;;;;5011899;28;20018;-67
2020/12/07 02:02:53;;;;;;;72.60;35.05;;;;;;;;;;5010646;28;20116;-67
2020/12/07 02:05:19;;;;;;;81.90;38.60;;;;;;;;;;5011529;28;20638;-66
2020/12/07 02:07:44;;;;;;;74.60;38.30;;;;;;;;;;5011454;28;20033;-66
2020/12/07 02:10:09;;;;;;;74.05;34.38;;;;;;;;;;5010587;28;20026;-67
2020/12/07 02:12:34;;;;;;;80.43;41.28;;;;;;;;;;5014610;28;20041;-67
2020/12/07 02:14:59;;;;;;;73.35;36.10;;;;;;;;;;5012540;28;20057;-66
2020/12/07 02:17:25;;;;;;;71.55;34.90;;;;;;;;;;5011494;28;20069;-67
2020/12/07 02:19:50;;;;;;;77.22;34.60;;;;;;;;;;5011714;28;20026;-66
2020/12/07 02:22:15;;;;;;;74.88;36.20;;;;;;;;;;5011812;28;20025;-66
2020/12/07 02:24:40;;;;;;;70.38;34.60;;;;;;;;;;5015291;28;20037;-67
2020/12/07 02:27:06;;;;;;;82.78;39.63;;;;;;;;;;5011588;28;20088;-66
2020/12/07 02:29:31;;;;;;;84.28;37.55;;;;;;;;;;5010881;28;20042;-67
2020/12/07 02:32:11;;;;;;;87.25;39.15;;;;;;;;;;5014151;28;20034;-66
2020/12/07 02:34:36;;;;;;;84.78;44.83;;;;;;;;;;5015868;28;20018;-67
2020/12/07 02:37:01;;;;;;;92.75;43.47;;;;;;;;;;5011147;28;20101;-67
2020/12/07 02:39:26;;;;;;;82.95;43.80;;;;;;;;;;5010580;28;20034;-67
2020/12/07 02:41:51;;;;;;;83.37;42.40;;;;;;;;;;5014819;28;20165;-66
2020/12/07 02:44:16;;;;;;;75.07;34.78;;;;;;;;;;5011093;28;20356;-66
2020/12/07 02:46:42;;;;;;;78.80;36.43;;;;;;;;;;5011250;28;20100;-66
2020/12/07 02:49:07;;;;;;;75.32;34.53;;;;;;;;;;5010630;28;20340;-66
2020/12/07 02:51:32;;;;;;;72.77;34.00;;;;;;;;;;5010930;28;20601;-66
2020/12/07 02:53:57;;;;;;;65.67;31.37;;;;;;;;;;5010402;28;20276;-67
2020/12/07 02:56:22;;;;;;;68.28;31.98;;;;;;;;;;5011267;28;20265;-66
2020/12/07 02:58:47;;;;;;;70.27;32.67;;;;;;;;;;5010991;28;20072;-65
2020/12/07 03:01:12;;;;;;;71.03;33.37;;;;;;;;;;5010585;28;20272;-66
2020/12/07 03:03:38;;;;;;;64.60;31.00;;;;;;;;;;5010696;28;20365;-66
2020/12/07 03:06:03;;;;;;;62.20;30.47;;;;;;;;;;5011296;28;20277;-66
2020/12/07 03:08:28;;;;;;;72.05;35.85;;;;;;;;;;5010745;28;20652;-66
2020/12/07 03:10:53;;;;;;;68.75;33.55;;;;;;;;;;5010101;28;20022;-66
2020/12/07 03:13:18;;;;;;;63.50;30.20;;;;;;;;;;5010368;28;20041;-66
2020/12/07 03:15:43;;;;;;;63.83;30.17;;;;;;;;;;5010959;28;20443;-67
2020/12/07 03:18:09;;;;;;;68.82;36.08;;;;;;;;;;5010003;28;20265;-67
2020/12/07 03:20:34;;;;;;;66.20;32.50;;;;;;;;;;5013462;28;20065;-66
2020/12/07 03:23:00;;;;;;;69.43;35.07;;;;;;;;;;5010244;28;20116;-67
2020/12/07 03:25:25;;;;;;;72.25;33.22;;;;;;;;;;5009844;28;20753;-67
2020/12/07 03:27:50;;;;;;;67.28;32.55;;;;;;;;;;5010800;28;20022;-66
2020/12/07 03:30:15;;;;;;;71.00;33.37;;;;;;;;;;5010292;28;20076;-67
2020/12/07 03:32:41;;;;;;;76.35;34.65;;;;;;;;;;5010414;28;20613;-66
2020/12/07 03:35:06;;;;;;;65.53;31.80;;;;;;;;;;5010157;28;20029;-66
2020/12/07 03:37:31;;;;;;;75.05;36.03;;;;;;;;;;5010314;28;20025;-66
2020/12/07 03:39:56;;;;;;;72.50;34.90;;;;;;;;;;5009991;28;20030;-66
2020/12/07 03:42:21;;;;;;;82.60;37.33;;;;;;;;;;5010682;28;20271;-66
2020/12/07 03:44:46;;;;;;;78.75;36.60;;;;;;;;;;5010632;28;20032;-67
2020/12/07 03:47:12;;;;;;;74.57;29.77;;;;;;;;;;5010240;28;20022;-66
2020/12/07 03:49:37;;;;;;;72.63;34.58;;;;;;;;;;5009570;28;20261;-67
2020/12/07 03:52:02;;;;;;;73.70;35.05;;;;;;;;;;5008758;28;20485;-67
2020/12/07 03:54:27;;;;;;;69.63;34.20;;;;;;;;;;5010144;28;20033;-66
2020/12/07 03:56:52;;;;;;;75.53;34.03;;;;;;;;;;5009970;28;20026;-67
2020/12/07 03:59:17;;;;;;;74.00;33.70;;;;;;;;;;5009341;28;20291;-66
2020/12/07 04:01:43;;;;;;;82.85;36.38;;;;;;;;;;5009874;28;20260;-67
2020/12/07 04:04:12;;;;;;;86.55;37.17;;;;;;;;;;5009366;28;20053;-66
2020/12/07 04:06:41;;;;;;;86.68;36.63;;;;;;;;;;5009648;28;20029;-67
2020/12/07 04:09:07;;;;;;;86.82;35.72;;;;;;;;;;5009722;28;20029;-66
2020/12/07 04:11:32;;;;;;;93.13;37.85;;;;;;;;;;5009876;28;20030;-65
2020/12/07 04:13:57;;;;;;;92.10;41.17;;;;;;;;;;5006886;28;20018;-66
2020/12/07 04:16:26;;;;;;;87.53;36.73;;;;;;;;;;5011614;28;20878;-66
2020/12/07 04:18:51;;;;;;;97.95;38.60;;;;;;;;;;5006911;28;20277;-66
2020/12/07 04:21:17;;;;;;;107.40;40.30;;;;;;;;;;5008325;28;20030;-66
2020/12/07 04:23:42;;;;;;;107.82;43.15;;;;;;;;;;5007949;28;20359;-66
2020/12/07 04:26:07;;;;;;;114.72;46.33;;;;;;;;;;5007088;28;20120;-66
2020/12/07 04:28:32;;;;;;;119.17;48.70;;;;;;;;;;5008945;28;20022;-66
2020/12/07 04:30:57;;;;;;;130.02;56.55;;;;;;;;;;5007473;28;20272;-66
2020/12/07 04:33:22;;;;;;;128.60;48.93;;;;;;;;;;5012174;28;20073;-66
2020/12/07 04:35:48;;;;;;;124.05;48.40;;;;;;;;;;5015284;28;20687;-66
2020/12/07 04:38:13;;;;;;;109.25;43.92;;;;;;;;;;5010931;28;20026;-66
2020/12/07 04:40:38;;;;;;;113.75;47.00;;;;;;;;;;5014591;28;20030;-66
2020/12/07 04:43:04;;;;;;;104.50;39.65;;;;;;;;;;5018380;28;20035;-66
2020/12/07 04:45:30;;;;;;;107.50;44.58;;;;;;;;;;5011502;28;20049;-66
2020/12/07 04:47:58;;;;;;;102.93;42.75;;;;;;;;;;5012064;28;20028;-67
2020/12/07 04:50:23;;;;;;;107.07;43.35;;;;;;;;;;5011287;28;20014;-67
2020/12/07 04:52:52;;;;;;;114.93;45.05;;;;;;;;;;5017068;28;20022;-66
2020/12/07 04:55:17;;;;;;;113.25;44.60;;;;;;;;;;5009942;28;20087;-67
2020/12/07 04:57:43;;;;;;;115.63;45.30;;;;;;;;;;5010766;28;20478;-66
2020/12/07 05:00:08;;;;;;;105.20;43.13;;;;;;;;;;5012925;28;20026;-66
2020/12/07 05:02:37;;;;;;;111.28;44.08;;;;;;;;;;5013385;28;20049;-66
2020/12/07 05:05:03;;;;;;;112.68;43.35;;;;;;;;;;5012700;28;20026;-66
2020/12/07 05:07:31;;;;;;;119.30;45.72;;;;;;;;;;5013249;28;20097;-66
2020/12/07 05:09:56;;;;;;;110.32;45.67;;;;;;;;;;5012981;28;20037;-66
2020/12/07 05:12:28;;;;;;;109.82;44.72;;;;;;;;;;5012945;28;20030;-66
2020/12/07 05:14:53;;;;;;;109.47;42.60;;;;;;;;;;5011905;28;20017;-66
2020/12/07 05:17:18;;;;;;;115.53;45.95;;;;;;;;;;5008781;28;20021;-66
2020/12/07 05:19:43;;;;;;;103.18;39.13;;;;;;;;;;5013253;28;20021;-66
2020/12/07 05:22:18;;;;;;;99.82;37.38;;;;;;;;;;5012656;28;20022;-66
2020/12/07 05:24:47;;;;;;;111.72;43.05;;;;;;;;;;5012805;28;20025;-66
2020/12/07 05:27:15;;;;;;;103.43;41.10;;;;;;;;;;5012729;28;20067;-66
2020/12/07 05:29:50;;;;;;;114.43;43.40;;;;;;;;;;5012308;28;20435;-66
2020/12/07 05:32:15;;;;;;;112.80;42.75;;;;;;;;;;5012652;28;20112;-66
2020/12/07 05:34:40;;;;;;;115.43;41.97;;;;;;;;;;5011145;28;20494;-66
2020/12/07 05:37:05;;;;;;;105.40;43.45;;;;;;;;;;5012022;28;20407;-66
2020/12/07 05:39:32;;;;;;;106.78;42.90;;;;;;;;;;5011558;28;20026;-66
2020/12/07 05:41:57;;;;;;;96.93;33.35;;;;;;;;;;5015379;28;20034;-66
2020/12/07 05:44:23;;;;;;;106.60;43.15;;;;;;;;;;5010720;28;20030;-65
2020/12/07 05:46:51;;;;;;;111.47;43.30;;;;;;;;;;5012708;28;20029;-66
2020/12/07 05:49:16;;;;;;;106.00;43.42;;;;;;;;;;5009425;28;20022;-66
2020/12/07 05:51:44;;;;;;;113.40;45.47;;;;;;;;;;5012499;28;20056;-66
2020/12/07 05:54:10;;;;;;;118.28;45.88;;;;;;;;;;5012026;28;20025;-66
2020/12/07 05:56:38;;;;;;;103.93;43.85;;;;;;;;;;5009524;28;20013;-66
2020/12/07 05:59:09;;;;;;;102.75;41.08;;;;;;;;;;5005978;28;20057;-65
2020/12/07 06:01:36;;;;;;;102.32;42.65;;;;;;;;;;5010090;28;20529;-66
2020/12/07 06:04:02;;;;;;;102.03;41.22;;;;;;;;;;5015438;28;20104;-68
2020/12/07 06:06:31;;;;;;;85.07;37.28;;;;;;;;;;5009505;28;20120;-67
2020/12/07 06:08:58;;;;;;;95.00;40.17;;;;;;;;;;5009568;28;20095;-68
2020/12/07 06:11:24;;;;;;;81.00;36.58;;;;;;;;;;5008492;28;20033;-67
2020/12/07 06:13:49;;;;;;;94.70;41.20;;;;;;;;;;5009755;28;20022;-67
2020/12/07 06:16:15;;;;;;;87.90;36.78;;;;;;;;;;5009257;28;20022;-67
2020/12/07 06:18:41;;;;;;;89.50;39.20;;;;;;;;;;5008829;28;20033;-67
2020/12/07 06:21:10;;;;;;;89.95;37.45;;;;;;;;;;5008830;28;20065;-67
2020/12/07 06:23:42;;;;;;;106.03;41.85;;;;;;;;;;5011857;28;20045;-68
2020/12/07 06:26:08;;;;;;;93.63;44.05;;;;;;;;;;5007765;28;20609;-66
2020/12/07 06:28:37;;;;;;;59.83;24.58;;;;;;;;;;5008899;28;20030;-66
2020/12/07 06:31:06;;;;;;;50.72;21.00;;;;;;;;;;5009262;28;20061;-66
2020/12/07 06:33:39;;;;;;;81.88;33.50;;;;;;;;;;4991755;28;20026;-66
2020/12/07 06:36:04;;;;;;;42.47;17.88;;;;;;;;;;5009846;28;20025;-66
2020/12/07 06:38:40;;;;;;;68.93;32.13;;;;;;;;;;5012415;28;20030;-66
2020/12/07 06:41:05;;;;;;;82.82;35.05;;;;;;;;;;5004961;28;20728;-66
2020/12/07 06:43:33;;;;;;;86.65;37.13;;;;;;;;;;5008629;28;20033;-66
2020/12/07 06:45:58;;;;;;;89.82;38.10;;;;;;;;;;5008852;28;20030;-67
2020/12/07 06:48:24;;;;;;;89.53;35.43;;;;;;;;;;5009019;28;20438;-67
2020/12/07 06:50:52;;;;;;;70.82;28.83;;;;;;;;;;5010733;28;20383;-66
2020/12/07 06:55:55;;;;;;;83.63;36.00;;;;;;;;;;5009614;28;20517;-67
2020/12/07 06:58:30;;;;;;;80.57;33.47;;;;;;;;;;5008958;28;20033;-66
2020/12/07 07:00:55;;;;;;;79.40;32.10;;;;;;;;;;5003561;28;20018;-66
2020/12/07 07:03:21;;;;;;;87.45;34.70;;;;;;;;;;5008443;28;20373;-66
2020/12/07 07:05:46;;;;;;;93.27;37.47;;;;;;;;;;5008353;28;20520;-66
2020/12/07 07:08:11;;;;;;;92.90;37.63;;;;;;;;;;5008502;28;20264;-67
2020/12/07 07:10:36;;;;;;;84.55;36.58;;;;;;;;;;5008529;28;20285;-66
2020/12/07 07:13:01;;;;;;;79.90;34.80;;;;;;;;;;5008667;28;20029;-66
2020/12/07 07:15:26;;;;;;;78.38;30.85;;;;;;;;;;5008823;28;20293;-66
2020/12/07 07:17:52;;;;;;;79.82;31.63;;;;;;;;;;5011277;28;20026;-67
2020/12/07 07:20:17;;;;;;;84.95;35.70;;;;;;;;;;5008237;28;20113;-66
2020/12/07 07:22:44;;;;;;;83.10;33.42;;;;;;;;;;5010009;28;20070;-66
2020/12/07 07:30:25;;;;;;;76.47;31.33;;;;;;;;;;5008667;28;20100;-66
2020/12/07 07:32:51;;;;;;;75.28;32.22;;;;;;;;;;5008389;28;20625;-66
2020/12/07 07:35:18;;;;;;;71.78;30.55;;;;;;;;;;5012275;28;20037;-67
2020/12/07 07:37:44;;;;;;;83.57;31.67;;;;;;;;;;5008228;28;20481;-66
2020/12/07 07:40:10;;;;;;;77.13;32.30;;;;;;;;;;5057666;23;20040;-68
2020/12/07 07:42:39;;;;;;;72.15;29.27;;;;;;;;;;5046581;28;20096;-67
2020/12/07 07:45:05;;;;;;;64.75;27.40;;;;;;;;;;5047644;28;20041;-66
2020/12/07 07:47:37;;;;;;;66.78;27.48;;;;;;;;;;5048159;28;20504;-67
2020/12/07 07:59:24;;;;;;;;;;;;;;;;;;5049526;28;20036;-67
2020/12/07 08:17:53;;;;;;;52.70;22.92;;;;;;;;;;5049355;28;20067;-67
2020/12/07 08:20:20;;;;;;;62.95;24.30;;;;;;;;;;5046694;28;20063;-67
2020/12/07 08:22:58;;;;;;;66.25;28.35;;;;;;;;;;5043412;28;20019;-67
2020/12/07 08:25:42;;;;;;;56.05;19.70;;;;;;;;;;5042937;28;20481;-67
2020/12/07 08:28:16;;;;;;;56.45;25.13;;;;;;;;;;5047027;28;20036;-67
2020/12/07 08:30:55;;;;;;;66.90;26.73;;;;;;;;;;5048544;28;20396;-67
2020/12/07 08:33:20;;;;;;;65.93;27.58;;;;;;;;;;5049493;28;20029;-67
2020/12/07 08:35:46;;;;;;;63.10;26.50;;;;;;;;;;5048065;28;20013;-67
2020/12/07 08:38:11;;;;;;;49.08;19.75;;;;;;;;;;5047950;28;20258;-67
2020/12/07 08:40:36;;;;;;;63.57;26.47;;;;;;;;;;5046665;28;20025;-67
2020/12/07 08:43:01;;;;;;;57.57;22.30;;;;;;;;;;5046397;28;20350;-66
2020/12/07 08:45:26;;;;;;;57.70;21.52;;;;;;;;;;5048126;28;20597;-67
2020/12/07 08:47:51;;;;;;;59.77;25.50;;;;;;;;;;5045632;28;20111;-67
2020/12/07 08:50:17;;;;;;;79.78;28.33;;;;;;;;;;5049031;28;20593;-67
2020/12/07 08:52:42;;;;;;;66.28;26.80;;;;;;;;;;5049138;28;20061;-67
2020/12/07 08:55:07;;;;;;;60.13;25.83;;;;;;;;;;5049697;28;20361;-67
2020/12/07 08:57:32;;;;;;;47.63;19.93;;;;;;;;;;5049977;28;20025;-67
2020/12/07 08:59:57;;;;;;;52.28;19.98;;;;;;;;;;5049765;28;20653;-67
2020/12/07 09:02:22;;;;;;;52.53;20.30;;;;;;;;;;5049674;28;20051;-67
2020/12/07 09:04:47;;;;;;;59.65;24.17;;;;;;;;;;5049635;28;20252;-67
2020/12/07 09:07:13;;;;;;;65.10;25.67;;;;;;;;;;5048730;28;20074;-67
2020/12/07 09:09:38;;;;;;;65.97;26.13;;;;;;;;;;5047926;28;20282;-67
2020/12/07 09:12:03;;;;;;;52.95;19.58;;;;;;;;;;5046893;28;20159;-68
2020/12/07 09:14:28;;;;;;;58.78;22.27;;;;;;;;;;5049539;28;20032;-67
2020/12/07 09:16:53;;;;;;;21.10;11.43;;;;;;;;;;5049321;28;20024;-68
2020/12/07 09:19:18;;;;;;;37.58;14.25;;;;;;;;;;5052447;28;20264;-67
2020/12/07 09:21:44;;;;;;;44.27;19.47;;;;;;;;;;5049700;28;20032;-68
2020/12/07 09:24:09;;;;;;;38.17;13.98;;;;;;;;;;5044994;28;20577;-66
2020/12/07 09:26:34;;;;;;;39.05;16.05;;;;;;;;;;5052675;28;20033;-66
2020/12/07 09:28:59;;;;;;;33.42;13.80;;;;;;;;;;5052102;28;20033;-67
2020/12/07 09:31:24;;;;;;;50.57;19.17;;;;;;;;;;5052907;28;20021;-67
2020/12/07 09:33:49;;;;;;;35.73;16.43;;;;;;;;;;5052250;28;20291;-67
2020/12/07 09:36:15;;;;;;;30.63;12.45;;;;;;;;;;5052649;28;20329;-67
2020/12/07 09:38:40;;;;;;;21.30;9.02;;;;;;;;;;5049722;28;20127;-67
2020/12/07 09:41:06;;;;;;;20.40;10.05;;;;;;;;;;5064790;28;20032;-68
2020/12/07 09:43:31;;;;;;;40.75;16.65;;;;;;;;;;5051747;28;20438;-67
2020/12/07 09:45:57;;;;;;;16.02;6.88;;;;;;;;;;5043256;28;20075;-67
2020/12/07 09:48:22;;;;;;;32.50;13.60;;;;;;;;;;5052302;28;20021;-67
2020/12/07 09:50:47;;;;;;;42.70;16.08;;;;;;;;;;5051477;28;20271;-67
2020/12/07 09:53:18;;;;;;;37.58;12.00;;;;;;;;;;5052463;28;20021;-67
2020/12/07 09:55:45;;;;;;;27.25;12.85;;;;;;;;;;5052144;28;20056;-67
2020/12/07 09:58:10;;;;;;;22.42;10.32;;;;;;;;;;5052500;28;20032;-67
2020/12/07 10:00:35;;;;;;;15.52;8.02;;;;;;;;;;5051950;28;20020;-67
2020/12/07 10:03:01;;;;;;;32.57;14.20;;;;;;;;;;5051631;28;20465;-67
2020/12/07 10:05:26;;;;;;;32.00;13.32;;;;;;;;;;5051703;28;20295;-67
2020/12/07 10:07:51;;;;;;;40.03;15.45;;;;;;;;;;5051988;28;20358;-67
2020/12/07 10:10:16;;;;;;;33.13;12.73;;;;;;;;;;5050836;28;20029;-67
2020/12/07 10:12:41;;;;;;;39.30;15.35;;;;;;;;;;5051613;28;20297;-67
2020/12/07 10:15:07;;;;;;;27.60;11.97;;;;;;;;;;5049720;28;20021;-67
2020/12/07 10:17:33;;;;;;;31.02;12.38;;;;;;;;;;5049210;28;20259;-67
2020/12/07 10:19:58;;;;;;;35.50;15.02;;;;;;;;;;5050953;28;20503;-67
2020/12/07 10:22:23;;;;;;;17.02;7.78;;;;;;;;;;5050148;28;20390;-67
2020/12/07 10:24:48;;;;;;;10.15;4.35;;;;;;;;;;5050816;28;20020;-67
2020/12/07 10:27:13;;;;;;;12.52;4.80;;;;;;;;;;5038010;28;20020;-67
2020/12/07 10:29:38;;;;;;;32.87;11.40;;;;;;;;;;5050617;28;20374;-67
2020/12/07 10:32:04;;;;;;;25.77;11.52;;;;;;;;;;5048713;28;20365;-67
2020/12/07 10:34:29;;;;;;;24.15;11.43;;;;;;;;;;5051700;28;20481;-67
2020/12/07 10:36:54;;;;;;;10.35;5.63;;;;;;;;;;5048771;28;20017;-67
2020/12/07 10:39:20;;;;;;;15.70;7.90;;;;;;;;;;5046964;28;20146;-67
2020/12/07 10:41:45;;;;;;;21.30;10.27;;;;;;;;;;5042139;28;20021;-67
2020/12/07 10:44:10;;;;;;;22.25;10.85;;;;;;;;;;5050145;28;20052;-67
2020/12/07 10:46:37;;;;;;;27.08;11.07;;;;;;;;;;5027668;28;20500;-67
2020/12/07 10:49:06;;;;;;;25.58;10.35;;;;;;;;;;5039651;28;20021;-67
2020/12/07 10:51:31;;;;;;;19.52;10.20;;;;;;;;;;5050644;28;20032;-68
2020/12/07 10:53:56;;;;;;;22.85;10.35;;;;;;;;;;5050373;28;20032;-67
2020/12/07 10:56:21;;;;;;;18.03;9.93;;;;;;;;;;5050690;28;20032;-67
2020/12/07 10:58:47;;;;;;;21.30;9.77;;;;;;;;;;5045934;28;20632;-68
2020/12/07 11:01:15;;;;;;;18.40;9.52;;;;;;;;;;5050752;28;20029;-67
2020/12/07 11:03:41;;;;;;;19.02;8.65;;;;;;;;;;5042366;28;20020;-68
2020/12/07 11:06:15;;;;;;;19.23;8.82;;;;;;;;;;5051653;28;20037;-68
2020/12/07 11:09:17;;;;;;;16.38;8.05;;;;;;;;;;5050687;28;20024;-68
2020/12/07 11:11:32;;;;;;;17.50;8.63;;;;;;;;;;5040998;28;20469;-68
2020/12/07 11:13:57;;;;;;;16.90;9.43;;;;;;;;;;5048403;28;20052;-67
2020/12/07 11:16:23;;;;;;;23.73;11.00;;;;;;;;;;5058383;28;20052;-67
2020/12/07 11:18:48;;;;;;;18.90;9.85;;;;;;;;;;5050378;28;20264;-67
2020/12/07 11:21:15;;;;;;;21.07;9.57;;;;;;;;;;5045992;28;20021;-68
2020/12/07 11:23:44;;;;;;;24.40;11.07;;;;;;;;;;5044648;28;20264;-67
2020/12/07 11:26:10;;;;;;;17.05;8.88;;;;;;;;;;5050087;28;20112;-66
2020/12/07 11:28:35;;;;;;;21.60;9.20;;;;;;;;;;5047896;28;20017;-67
2020/12/07 11:31:00;;;;;;;19.42;10.98;;;;;;;;;;5050101;28;20381;-69
2020/12/07 11:33:25;;;;;;;22.77;10.93;;;;;;;;;;5048821;28;20527;-66
2020/12/07 11:35:50;;;;;;;16.67;8.77;;;;;;;;;;5050039;28;20263;-66
2020/12/07 11:38:22;;;;;;;19.17;10.00;;;;;;;;;;5044067;28;20263;-67
2020/12/07 11:43:28;;;;;;;18.30;9.82;;;;;;;;;;5049558;28;20037;-67
2020/12/07 11:45:53;;;;;;;20.17;9.00;;;;;;;;;;5035954;28;20017;-66
2020/12/07 11:48:19;;;;;;;18.93;9.00;;;;;;;;;;5046730;28;20479;-67
2020/12/07 11:50:44;;;;;;;19.52;8.70;;;;;;;;;;5046191;28;20267;-67
2020/12/07 11:53:09;;;;;;;10.80;5.70;;;;;;;;;;5049482;28;20017;-67
2020/12/07 11:55:35;;;;;;;12.90;5.23;;;;;;;;;;5049535;28;20025;-67
2020/12/07 11:58:00;;;;;;;13.00;6.30;;;;;;;;;;5049729;28;20683;-67
2020/12/07 12:00:26;;;;;;;15.93;7.47;;;;;;;;;;5049383;28;20017;-67
2020/12/07 12:02:51;;;;;;;17.50;8.50;;;;;;;;;;5048488;28;20346;-67
2020/12/07 12:05:16;;;;;;;17.90;9.05;;;;;;;;;;5035336;28;20466;-67
2020/12/07 12:07:41;;;;;;;20.02;8.38;;;;;;;;;;5049147;28;20067;-67
2020/12/07 12:10:07;;;;;;;13.90;6.33;;;;;;;;;;5044575;28;20024;-67
2020/12/07 12:12:32;;;;;;;15.18;6.72;;;;;;;;;;5045365;28;20350;-68
2020/12/07 12:14:57;;;;;;;12.13;6.57;;;;;;;;;;5049124;28;20474;-67
2020/12/07 12:17:22;;;;;;;19.00;6.93;;;;;;;;;;5038062;28;20443;-67
2020/12/07 12:19:47;;;;;;;18.00;7.93;;;;;;;;;;5043388;28;20311;-67
2020/12/07 12:22:12;;;;;;;22.07;7.73;;;;;;;;;;5047346;28;20769;-68
2020/12/07 12:24:38;;;;;;;15.30;8.02;;;;;;;;;;5049134;28;20276;-68
2020/12/07 12:27:03;;;;;;;15.75;7.68;;;;;;;;;;5048533;28;20101;-67
2020/12/07 12:29:28;;;;;;;17.42;8.13;;;;;;;;;;5045384;28;20040;-67
2020/12/07 12:31:53;;;;;;;19.95;8.82;;;;;;;;;;5048636;28;20033;-68
2020/12/07 12:34:19;;;;;;;17.27;8.57;;;;;;;;;;5043141;28;20275;-68
2020/12/07 12:36:46;;;;;;;15.60;7.53;;;;;;;;;;5047502;28;20753;-68
2020/12/07 12:39:11;;;;;;;18.35;7.72;;;;;;;;;;5046396;28;20014;-67
2020/12/07 12:41:37;;;;;;;17.92;9.30;;;;;;;;;;5047880;28;20021;-67
2020/12/07 12:44:07;;;;;;;22.13;10.00;;;;;;;;;;5054714;28;20025;-68
2020/12/07 12:46:32;;;;;;;;;;;;;;;;;;5050680;28;20775;-68
2020/12/07 12:48:57;;;;;;;13.88;6.07;;;;;;;;;;5047363;28;20392;-68
2020/12/07 12:51:23;;;;;;;11.77;6.13;;;;;;;;;;5047536;28;20022;-67
2020/12/07 12:53:48;;;;;;;10.67;5.37;;;;;;;;;;5051213;28;20063;-67
2020/12/07 12:56:13;;;;;;;14.45;8.07;;;;;;;;;;5051644;28;20264;-68
2020/12/07 12:58:38;;;;;;;20.53;8.27;;;;;;;;;;5048369;28;20466;-68
2020/12/07 13:01:04;;;;;;;19.23;8.88;;;;;;;;;;5052315;28;20268;-68
2020/12/07 13:03:29;;;;;;;22.00;8.23;;;;;;;;;;5051982;28;20083;-67
2020/12/07 13:05:54;;;;;;;18.63;8.98;;;;;;;;;;5051621;28;20075;-67
2020/12/07 13:08:19;;;;;;;23.20;11.88;;;;;;;;;;5051456;28;20025;-67
2020/12/07 13:10:47;;;;;;;23.13;10.63;;;;;;;;;;5051103;28;20017;-67
2020/12/07 13:13:12;;;;;;;21.88;10.50;;;;;;;;;;5051514;28;20017;-67
2020/12/07 13:15:43;;;;;;;21.83;10.93;;;;;;;;;;5056015;28;20559;-67
2020/12/07 13:18:10;;;;;;;21.60;11.00;;;;;;;;;;5052740;28;20674;-67
2020/12/07 13:20:48;;;;;;;20.55;9.73;;;;;;;;;;5050221;28;20017;-67
2020/12/07 13:23:24;;;;;;;21.35;11.00;;;;;;;;;;5052540;28;20107;-68
2020/12/07 13:25:58;;;;;;;21.33;11.60;;;;;;;;;;5050469;28;20016;-66
2020/12/07 13:28:24;;;;;;;27.25;11.95;;;;;;;;;;5047315;28;20075;-66
2020/12/07 13:30:49;;;;;;;28.07;13.27;;;;;;;;;;5048577;28;20021;-69
2020/12/07 13:33:14;;;;;;;28.88;11.98;;;;;;;;;;5054096;28;20755;-66
2020/12/07 13:35:40;;;;;;;28.05;13.82;;;;;;;;;;5052499;28;20571;-67
2020/12/07 13:38:06;;;;;;;23.65;13.13;;;;;;;;;;5046934;28;20013;-67
2020/12/07 13:40:31;;;;;;;29.70;13.32;;;;;;;;;;5073399;22;20057;-67
2020/12/07 13:42:56;;;;;;;23.08;11.70;;;;;;;;;;5049912;28;20029;-66
2020/12/07 13:45:21;;;;;;;23.20;12.18;;;;;;;;;;5054937;28;20060;-66
2020/12/07 13:47:48;;;;;;;23.77;12.68;;;;;;;;;;5055512;28;20025;-66
2020/12/07 13:50:13;;;;;;;23.52;11.75;;;;;;;;;;5045379;28;20025;-67
2020/12/07 13:52:38;;;;;;;24.73;11.07;;;;;;;;;;5048144;28;20025;-66
2020/12/07 13:55:04;;;;;;;19.33;9.85;;;;;;;;;;5048660;28;20901;-66
2020/12/07 13:57:29;;;;;;;21.50;9.80;;;;;;;;;;5050644;28;20086;-67
2020/12/07 13:59:54;;;;;;;26.33;12.33;;;;;;;;;;5050404;28;20524;-67
2020/12/07 14:02:19;;;;;;;20.60;11.02;;;;;;;;;;5050904;28;20267;-66
2020/12/07 14:07:18;;;;;;;24.45;11.27;;;;;;;;;;5050602;28;20112;-67
2020/12/07 14:09:44;;;;;;;26.90;12.18;;;;;;;;;;5049093;28;20151;-66
2020/12/07 14:12:09;;;;;;;19.10;8.05;;;;;;;;;;5047213;28;20075;-66
2020/12/07 14:14:35;;;;;;;26.17;12.13;;;;;;;;;;5050130;28;20389;-66
2020/12/07 14:17:03;;;;;;;26.02;13.50;;;;;;;;;;5050665;28;20036;-67
2020/12/07 14:19:53;;;;;;;26.15;12.45;;;;;;;;;;5050624;28;20017;-67
2020/12/07 14:22:36;;;;;;;27.50;12.40;;;;;;;;;;5044249;28;20040;-67
2020/12/07 14:25:19;;;;;;;27.73;12.27;;;;;;;;;;5047009;28;20021;-66
2020/12/07 14:28:14;;;;;;;36.25;16.17;;;;;;;;;;5048049;28;20389;-67
2020/12/07 14:41:21;;;;;;;39.00;14.32;;;;;;;;;;5054081;28;20094;-68
2020/12/07 14:43:47;;;;;;;24.95;10.18;;;;;;;;;;5050583;28;20374;-68
2020/12/07 14:46:16;;;;;;;29.98;12.25;;;;;;;;;;5046329;28;20017;-68
2020/12/07 14:48:42;;;;;;;25.88;11.30;;;;;;;;;;5044435;28;20021;-66
2020/12/07 14:53:41;;;;;;;29.45;11.25;;;;;;;;;;5050211;28;20469;-66
2020/12/07 14:56:23;;;;;;;27.88;12.75;;;;;;;;;;5051722;28;20031;-66
2020/12/07 15:07:09;;;;;;;21.00;10.65;;;;;;;;;;5049909;28;20029;-67
2020/12/07 15:15:10;;;;;;;15.10;6.22;;;;;;;;;;5025526;28;20086;-67
2020/12/07 15:17:35;;;;;;;18.90;7.97;;;;;;;;;;5046387;28;20362;-67
2020/12/07 15:20:00;;;;;;;15.40;6.67;;;;;;;;;;5049309;28;20020;-67